Bookmark and Share
Track history (hours):
 

Antonios

Last reported at 2014-Apr-10 23:34 UTC. Time now 2014-Apr-24 09:23 UTC.
Position N 37°03' E 026°21'.
Warning: this ship's position is 13 days out of date.

Length 57 m; draft 2.9 m.

Type: Tanker. MMSI: 239191300.

NotesDate/timePositionNaut miles runAvg speedWind from/ knotsBaromVisibWave heightAir tempDewpointWater temp
2014-Apr-10 23:34N 37°03' E 026°21'1210.2
2014-Apr-10 22:21N 37°06' E 026°06'810.0
2014-Apr-10 21:33N 37°09' E 025°57'1010.5
2014-Apr-10 20:34N 37°11' E 025°44'1110.5
2014-Apr-10 19:31N 37°14' E 025°31'1010.2
2014-Apr-10 18:34N 37°16' E 025°19'1010.1
2014-Apr-10 17:34N 37°18' E 025°07'1010.3
2014-Apr-10 16:33N 37°19' E 024°54'1010.3
2014-Apr-10 15:33N 37°24' E 024°42'1010.6
2014-Apr-10 14:34N 37°29' E 024°30'1110.4
2014-Apr-10 13:33N 37°30' E 024°17'1210.2
2014-Apr-10 12:21N 37°35' E 024°03'17 9.6
2014-Apr-10 10:34N 37°41' E 023°42'10 9.9
2014-Apr-10 09:34N 37°49' E 023°36'5 0.2
2014-Apr-09 05:33N 37°50' E 023°29'10 9.6
2014-Apr-09 04:33N 37°47' E 023°41'4110.2
2014-Apr-09 00:33N 37°29' E 024°27'1010.3
2014-Apr-08 23:33N 37°25' E 024°39'1010.4
2014-Apr-08 22:33N 37°21' E 024°51'1010.5
2014-Apr-08 21:33N 37°18' E 025°04'1010.5
2014-Apr-08 20:33N 37°16' E 025°17'1010.4
2014-Apr-08 19:33N 37°16' E 025°30'9 9.4
2014-Apr-08 18:33N 37°13' E 025°41'9 8.9
2014-Apr-08 17:33N 37°10' E 025°52'8 8.1
2014-Apr-08 16:33N 37°08' E 026°01'8 8.0
2014-Apr-08 15:33N 37°06' E 026°11'9 8.9
2014-Apr-08 14:32N 37°04' E 026°22'  

Dump ship's entire track history

sailing weather and tide predictions

Antonios — SY8410 — position and weather